Time;durP1;ratioP1;P1;durP2;ratioP2;P2;SDS_P1;SDS_P2;PMS_P1;PMS_P2;Temp;Humidity;BMP_temperature;BMP_pressure;BME280_temperature;BME280_humidity;BME280_pressure;Samples;Min_cycle;Max_cycle;Signal;HPM_P1;HPM_P2
2022/03/30 00:01:01;;;;;;;16.27;8.48;;;5.70;99.90;;;;;;6267460;22;20035;-56
2022/03/30 00:03:27;;;;;;;16.45;8.48;;;5.70;99.90;;;;;;6240850;22;20126;-59
2022/03/30 00:05:53;;;;;;;18.48;8.60;;;6.00;99.90;;;;;;6240816;22;20019;-59
2022/03/30 00:08:19;;;;;;;14.95;8.20;;;5.70;99.90;;;;;;6267456;22;20026;-59
2022/03/30 00:10:44;;;;;;;14.60;7.38;;;5.70;99.90;;;;;;6268162;22;20023;-59
2022/03/30 00:13:10;;;;;;;24.27;9.75;;;5.60;99.90;;;;;;6267741;22;20767;-58
2022/03/30 00:15:36;;;;;;;19.40;9.05;;;5.60;99.90;;;;;;6268510;22;20514;-59
2022/03/30 00:18:02;;;;;;;17.50;8.18;;;5.60;99.90;;;;;;6267965;22;20016;-56
2022/03/30 00:20:27;;;;;;;19.67;10.25;;;5.60;99.90;;;;;;6267469;22;20472;-56
2022/03/30 00:22:53;;;;;;;20.55;9.88;;;5.60;99.90;;;;;;6267556;22;20077;-56
2022/03/30 00:25:20;;;;;;;19.38;9.25;;;5.60;99.90;;;;;;6268279;22;20016;-56
2022/03/30 00:27:46;;;;;;;20.13;9.00;;;5.50;99.90;;;;;;6240398;22;20023;-56
2022/03/30 00:30:14;;;;;;;22.95;8.80;;;5.50;99.90;;;;;;6267653;22;20060;-56
2022/03/30 00:32:40;;;;;;;19.30;8.40;;;5.50;99.90;;;;;;6267465;22;20031;-56
2022/03/30 00:35:07;;;;;;;27.58;10.40;;;5.50;99.90;;;;;;6267702;22;20012;-56
2022/03/30 00:37:37;;;;;;;19.52;8.65;;;5.40;99.90;;;;;;6267584;22;20020;-56
2022/03/30 00:40:10;;;;;;;16.40;8.38;;;5.40;99.90;;;;;;6268177;22;20016;-56
2022/03/30 00:42:36;;;;;;;19.17;8.93;;;5.40;99.90;;;;;;6267332;22;20129;-57
2022/03/30 00:45:23;;;;;;;19.52;8.77;;;5.30;99.90;;;;;;6240078;22;20015;-56
2022/03/30 00:47:50;;;;;;;17.33;8.98;;;5.40;99.90;;;;;;6267558;22;20026;-56
2022/03/30 00:50:18;;;;;;;22.08;10.57;;;5.30;99.90;;;;;;6267911;22;20098;-56
2022/03/30 00:52:50;;;;;;;16.70;9.27;;;5.30;99.90;;;;;;6267006;22;20012;-56
2022/03/30 00:55:17;;;;;;;16.75;9.50;;;5.30;99.90;;;;;;6267507;22;20020;-60
2022/03/30 00:57:45;;;;;;;21.02;9.95;;;5.20;99.90;;;;;;6239662;22;20054;-61
2022/03/30 01:00:15;;;;;;;25.02;9.88;;;5.20;99.90;;;;;;6240058;22;20098;-58
2022/03/30 01:02:45;;;;;;;20.98;9.18;;;5.20;99.90;;;;;;6267789;22;20012;-57
2022/03/30 01:05:11;;;;;;;19.92;9.55;;;5.20;99.90;;;;;;6267224;22;20099;-59
2022/03/30 01:07:37;;;;;;;17.42;9.02;;;5.20;99.90;;;;;;6267786;22;20308;-57
2022/03/30 01:10:04;;;;;;;24.90;10.05;;;5.20;99.90;;;;;;6267196;22;20026;-56
2022/03/30 01:12:32;;;;;;;20.67;9.48;;;5.20;99.90;;;;;;6238974;22;20019;-56
2022/03/30 01:14:59;;;;;;;19.35;9.10;;;5.20;99.90;;;;;;6266924;22;20445;-56
2022/03/30 01:17:25;;;;;;;21.10;8.43;;;5.20;99.90;;;;;;6267677;22;20067;-56
2022/03/30 01:19:50;;;;;;;19.15;9.52;;;5.20;99.90;;;;;;6267064;22;20020;-56
2022/03/30 01:22:16;;;;;;;21.75;10.10;;;5.40;99.90;;;;;;6267423;22;20737;-56
2022/03/30 01:24:42;;;;;;;18.42;10.05;;;5.20;99.90;;;;;;6267650;22;20051;-56
2022/03/30 01:27:07;;;;;;;19.58;10.32;;;5.20;99.90;;;;;;6266999;22;20015;-56
2022/03/30 01:32:28;;;;;;;17.85;9.50;;;5.30;99.90;;;;;;6267603;22;20030;-56
2022/03/30 01:34:55;;;;;;;25.13;10.13;;;5.40;99.90;;;;;;6267576;22;20062;-56
2022/03/30 01:37:20;;;;;;;22.55;10.80;;;5.40;99.90;;;;;;6267376;22;20020;-56
2022/03/30 01:39:46;;;;;;;19.55;9.73;;;4.20;99.90;;;;;;6267784;22;20796;-56
2022/03/30 01:42:12;;;;;;;20.05;10.18;;;6.20;99.90;;;;;;6266820;22;20045;-56
2022/03/30 01:44:38;;;;;;;19.45;10.20;;;5.50;99.90;;;;;;6266783;22;20081;-56
2022/03/30 01:47:04;;;;;;;21.70;10.52;;;5.70;99.90;;;;;;6267703;22;20095;-56
2022/03/30 01:49:30;;;;;;;19.23;10.82;;;5.60;99.90;;;;;;6266491;22;20031;-56
2022/03/30 01:51:58;;;;;;;23.25;10.82;;;5.60;99.90;;;;;;6267404;22;20016;-56
2022/03/30 01:54:25;;;;;;;22.30;10.13;;;5.60;99.90;;;;;;6267854;22;20015;-56
2022/03/30 01:56:53;;;;;;;21.67;10.32;;;5.70;99.90;;;;;;6238423;22;20027;-57
2022/03/30 01:59:19;;;;;;;22.30;11.07;;;5.90;99.90;;;;;;6267125;22;20020;-56
2022/03/30 02:01:45;;;;;;;21.85;10.43;;;5.70;99.90;;;;;;6267015;22;20019;-56
2022/03/30 02:04:11;;;;;;;25.30;10.00;;;5.80;99.90;;;;;;6266465;22;20027;-56
2022/03/30 02:06:37;;;;;;;24.20;11.30;;;5.80;99.90;;;;;;6267594;22;20020;-56
2022/03/30 02:09:08;;;;;;;20.65;10.48;;;5.80;99.90;;;;;;6266868;22;20020;-56
2022/03/30 02:11:34;;;;;;;21.10;10.07;;;6.10;99.90;;;;;;6240095;22;20015;-56
2022/03/30 02:14:01;;;;;;;21.27;10.43;;;5.80;99.90;;;;;;6263596;22;20050;-56
2022/03/30 02:16:27;;;;;;;24.17;10.88;;;5.90;99.90;;;;;;6267256;22;20125;-56
2022/03/30 02:18:53;;;;;;;22.70;10.77;;;5.90;99.90;;;;;;6266192;22;20111;-57
2022/03/30 02:21:19;;;;;;;25.02;12.05;;;5.90;99.90;;;;;;6266917;22;20026;-57
2022/03/30 02:23:46;;;;;;;20.77;10.82;;;5.90;99.90;;;;;;6239388;22;20106;-57
2022/03/30 02:26:13;;;;;;;21.23;10.65;;;6.40;99.90;;;;;;6268755;22;20058;-57
2022/03/30 02:28:40;;;;;;;23.65;11.15;;;5.90;99.90;;;;;;6268713;22;20023;-56
2022/03/30 02:31:06;;;;;;;23.92;12.02;;;5.90;99.90;;;;;;6268463;22;20450;-56
2022/03/30 02:33:32;;;;;;;26.98;11.00;;;5.90;99.90;;;;;;6268262;22;20059;-56
2022/03/30 02:35:58;;;;;;;20.67;9.57;;;5.90;99.90;;;;;;6267940;22;20150;-56
2022/03/30 02:38:23;;;;;;;19.23;9.30;;;5.90;99.90;;;;;;6268940;22;20021;-59
2022/03/30 02:40:49;;;;;;;23.27;9.82;;;5.80;99.90;;;;;;6267565;22;20023;-56
2022/03/30 02:43:19;;;;;;;18.45;8.73;;;5.90;99.90;;;;;;6269442;22;20074;-57
2022/03/30 02:45:46;;;;;;;21.23;8.82;;;5.80;99.90;;;;;;6268407;22;20019;-57
2022/03/30 02:48:18;;;;;;;28.42;9.88;;;5.80;99.90;;;;;;6268408;22;20015;-57
2022/03/30 02:50:48;;;;;;;22.30;8.30;;;5.80;99.90;;;;;;6268966;22;20099;-57
2022/03/30 02:53:18;;;;;;;23.65;9.70;;;5.80;99.90;;;;;;6268680;22;20023;-56
2022/03/30 02:55:44;;;;;;;20.38;9.75;;;5.70;99.90;;;;;;6241476;22;20027;-57
2022/03/30 02:58:11;;;;;;;19.30;9.95;;;5.70;99.90;;;;;;6268301;22;20026;-56
2022/03/30 03:00:38;;;;;;;23.20;10.32;;;5.70;99.90;;;;;;6240805;22;20023;-57
2022/03/30 03:03:04;;;;;;;17.30;8.48;;;5.70;99.90;;;;;;6241822;22;20024;-57
2022/03/30 03:05:32;;;;;;;22.40;9.30;;;5.70;99.90;;;;;;6268766;22;20022;-56
2022/03/30 03:07:59;;;;;;;18.27;9.27;;;5.70;99.90;;;;;;6268242;22;20024;-57
2022/03/30 03:10:25;;;;;;;22.48;10.00;;;5.70;99.90;;;;;;6268227;22;20079;-56
2022/03/30 03:12:51;;;;;;;22.80;9.70;;;5.80;99.90;;;;;;6268304;22;20024;-58
2022/03/30 03:15:17;;;;;;;25.17;10.38;;;5.70;99.90;;;;;;6268883;22;20011;-57
2022/03/30 03:17:43;;;;;;;19.58;9.20;;;6.20;99.90;;;;;;6269041;22;20446;-59
2022/03/30 03:20:11;;;;;;;19.73;8.10;;;5.80;99.90;;;;;;6267673;22;20403;-56
2022/03/30 03:22:37;;;;;;;24.52;9.68;;;5.80;99.90;;;;;;6268835;22;20015;-56
2022/03/30 03:25:03;;;;;;;19.20;9.38;;;5.80;99.90;;;;;;6268347;22;20043;-57
2022/03/30 03:27:29;;;;;;;17.88;9.15;;;5.70;99.90;;;;;;6267764;22;20521;-56
2022/03/30 03:29:55;;;;;;;16.58;7.53;;;5.70;99.90;;;;;;6268657;22;20027;-55
2022/03/30 03:32:20;;;;;;;15.57;8.05;;;5.70;99.90;;;;;;6268659;22;20086;-56
2022/03/30 03:34:46;;;;;;;20.52;7.95;;;5.70;99.90;;;;;;6268258;22;20051;-58
2022/03/30 03:37:12;;;;;;;14.07;6.68;;;5.70;99.90;;;;;;6267264;22;20509;-59
2022/03/30 03:39:37;;;;;;;13.52;5.28;;;5.80;99.90;;;;;;6240799;22;20032;-56
2022/03/30 03:42:03;;;;;;;9.32;3.55;;;5.80;99.90;;;;;;6267223;22;20023;-57
2022/03/30 03:44:31;;;;;;;7.68;2.92;;;5.80;99.90;;;;;;6267601;22;20031;-57
2022/03/30 03:46:57;;;;;;;4.50;2.00;;;5.80;99.90;;;;;;6267974;22;20111;-59
2022/03/30 03:49:23;;;;;;;5.07;1.63;;;5.70;99.90;;;;;;6268105;22;20112;-59
2022/03/30 03:51:48;;;;;;;2.05;1.13;;;5.70;99.90;;;;;;6239805;22;20107;-57
2022/03/30 03:54:14;;;;;;;2.03;1.25;;;5.70;99.90;;;;;;6268140;22;20023;-56
2022/03/30 03:56:40;;;;;;;1.52;1.10;;;5.70;99.90;;;;;;6267033;22;20478;-56
2022/03/30 03:59:05;;;;;;;1.40;0.60;;;5.70;99.90;;;;;;6268265;22;20011;-58
2022/03/30 04:01:31;;;;;;;1.55;0.68;;;5.70;99.90;;;;;;6267416;22;20045;-57
2022/03/30 04:03:57;;;;;;;1.17;0.63;;;5.90;99.90;;;;;;6268422;22;20031;-57
2022/03/30 04:06:22;;;;;;;1.52;0.70;;;5.70;99.90;;;;;;6239946;22;20030;-56
2022/03/30 04:08:49;;;;;;;1.08;0.60;;;5.70;99.90;;;;;;6267677;22;20752;-56
2022/03/30 04:11:15;;;;;;;1.30;0.63;;;5.70;99.90;;;;;;6267156;22;20469;-56
2022/03/30 04:13:41;;;;;;;0.88;0.60;;;6.20;99.90;;;;;;6240123;22;20035;-56
2022/03/30 04:16:07;;;;;;;3.15;0.77;;;5.70;99.90;;;;;;6268009;22;20012;-56
2022/03/30 04:18:32;;;;;;;0.50;0.50;;;5.70;99.90;;;;;;6268569;22;20438;-56
2022/03/30 04:20:58;;;;;;;2.08;0.98;;;5.60;99.90;;;;;;6268387;22;20020;-56
2022/03/30 04:23:24;;;;;;;2.70;1.13;;;5.70;99.90;;;;;;6268572;22;20020;-56
2022/03/30 04:25:50;;;;;;;2.58;0.60;;;5.60;99.90;;;;;;6240336;22;20442;-57
2022/03/30 04:28:17;;;;;;;0.80;0.70;;;5.70;99.90;;;;;;6236638;22;20024;-56
2022/03/30 04:30:43;;;;;;;0.73;0.60;;;5.70;99.90;;;;;;6267559;22;20026;-57
2022/03/30 04:33:12;;;;;;;0.30;0.22;;;5.70;99.90;;;;;;6267295;22;20015;-56
2022/03/30 04:35:38;;;;;;;1.50;0.50;;;5.70;99.90;;;;;;6268048;22;20020;-57
2022/03/30 04:38:05;;;;;;;2.53;0.40;;;5.70;99.90;;;;;;6266461;22;20312;-57
2022/03/30 04:40:32;;;;;;;0.20;0.20;;;5.70;99.90;;;;;;6266121;22;20015;-57
2022/03/30 04:42:57;;;;;;;0.28;0.20;;;5.60;99.90;;;;;;6239799;22;20026;-56
2022/03/30 04:45:23;;;;;;;3.97;0.30;;;6.90;99.90;;;;;;6267161;22;20016;-56
2022/03/30 04:47:49;;;;;;;0.73;0.38;;;7.10;99.90;;;;;;6267174;22;20099;-56
2022/03/30 04:50:15;;;;;;;1.38;0.60;;;5.70;99.90;;;;;;6267082;22;20377;-58
2022/03/30 04:52:41;;;;;;;0.45;0.45;;;5.70;99.90;;;;;;6268291;22;20020;-56
2022/03/30 04:55:09;;;;;;;2.05;0.50;;;5.60;99.90;;;;;;6266940;22;20042;-56
2022/03/30 04:57:35;;;;;;;1.45;0.40;;;5.60;99.90;;;;;;6267204;22;20035;-56
2022/03/30 05:00:03;;;;;;;1.15;0.90;;;5.80;99.90;;;;;;6267617;22;20016;-57
2022/03/30 05:02:32;;;;;;;2.00;0.68;;;5.70;99.90;;;;;;6239380;22;20020;-57
2022/03/30 05:04:57;;;;;;;2.00;0.82;;;5.60;99.90;;;;;;6266774;22;20059;-56
2022/03/30 05:07:24;;;;;;;0.70;0.40;;;5.70;99.90;;;;;;6267220;22;20043;-56
2022/03/30 05:09:50;;;;;;;0.47;0.47;;;5.60;99.90;;;;;;6238116;22;20069;-57
2022/03/30 05:12:15;;;;;;;0.35;0.35;;;5.60;99.90;;;;;;6266215;22;20087;-61
2022/03/30 05:14:41;;;;;;;0.60;0.47;;;5.60;99.90;;;;;;6266360;22;20047;-56
2022/03/30 05:17:08;;;;;;;2.50;0.70;;;5.60;99.90;;;;;;6266659;22;20047;-56
2022/03/30 05:19:34;;;;;;;1.02;0.57;;;5.50;99.90;;;;;;6266264;22;20587;-56
2022/03/30 05:22:00;;;;;;;1.27;0.70;;;5.50;99.90;;;;;;6266285;22;20094;-58
2022/03/30 05:24:26;;;;;;;1.95;0.90;;;5.80;99.90;;;;;;6267183;22;20698;-56
2022/03/30 05:26:53;;;;;;;0.95;0.50;;;5.90;99.90;;;;;;6266932;22;20023;-56
2022/03/30 05:29:20;;;;;;;0.57;0.40;;;5.50;99.90;;;;;;6267554;22;20474;-56
2022/03/30 05:31:45;;;;;;;0.73;0.50;;;5.50;99.90;;;;;;6266634;22;20047;-57
2022/03/30 05:34:11;;;;;;;0.77;0.65;;;5.50;99.90;;;;;;6266997;22;20328;-56
2022/03/30 05:36:37;;;;;;;0.75;0.40;;;5.50;99.90;;;;;;6267416;22;20078;-56
2022/03/30 05:39:03;;;;;;;0.85;0.40;;;5.50;99.90;;;;;;6267018;22;20458;-57
2022/03/30 05:41:30;;;;;;;1.10;0.60;;;5.50;99.90;;;;;;6266927;22;20095;-57
2022/03/30 05:43:56;;;;;;;0.60;0.47;;;5.80;99.90;;;;;;6239277;22;20458;-58
2022/03/30 05:46:21;;;;;;;2.25;0.60;;;5.50;99.90;;;;;;6266835;22;20051;-56
2022/03/30 05:48:47;;;;;;;1.27;0.57;;;5.60;99.90;;;;;;6267332;22;20055;-58
2022/03/30 05:51:13;;;;;;;2.30;0.60;;;5.60;99.90;;;;;;6266388;22;20054;-57
2022/03/30 05:53:39;;;;;;;1.73;0.50;;;5.50;99.90;;;;;;6267205;22;20035;-57
2022/03/30 05:56:05;;;;;;;0.60;0.40;;;5.60;99.90;;;;;;6237450;22;20061;-59
2022/03/30 05:58:31;;;;;;;1.92;0.63;;;5.60;99.90;;;;;;6239619;22;20020;-57
2022/03/30 06:00:57;;;;;;;0.30;0.30;;;5.50;99.90;;;;;;6266875;22;20026;-56
2022/03/30 06:03:23;;;;;;;1.15;0.80;;;5.60;99.90;;;;;;6239688;22;20027;-57
2022/03/30 06:05:51;;;;;;;2.47;0.40;;;5.60;99.90;;;;;;6266349;22;20020;-56
2022/03/30 06:08:17;;;;;;;0.50;0.50;;;5.60;99.90;;;;;;6266448;22;20758;-57
2022/03/30 06:10:43;;;;;;;0.52;0.52;;;5.60;99.90;;;;;;6265760;22;20055;-56
2022/03/30 06:13:09;;;;;;;3.55;1.35;;;5.70;99.90;;;;;;6266333;22;20019;-57
2022/03/30 06:15:37;;;;;;;1.55;0.50;;;6.40;99.90;;;;;;6266362;22;20022;-57
2022/03/30 06:18:05;;;;;;;1.70;0.55;;;5.90;99.90;;;;;;6267181;22;20026;-56
2022/03/30 06:20:31;;;;;;;2.90;0.70;;;5.90;99.90;;;;;;6265992;22;20385;-57
2022/03/30 06:22:57;;;;;;;2.17;0.60;;;5.90;99.90;;;;;;6266555;22;20016;-56
2022/03/30 06:25:24;;;;;;;0.60;0.60;;;6.00;99.90;;;;;;6265482;22;20023;-56
2022/03/30 06:27:51;;;;;;;0.55;0.55;;;6.10;99.90;;;;;;6264739;22;20020;-57
2022/03/30 06:30:17;;;;;;;1.83;1.20;;;6.10;99.90;;;;;;6265604;22;20020;-58
2022/03/30 06:32:46;;;;;;;2.42;0.85;;;6.50;99.90;;;;;;6236006;22;20081;-59
2022/03/30 06:35:12;;;;;;;1.63;0.60;;;6.10;99.90;;;;;;6210977;22;20058;-59
2022/03/30 06:37:38;;;;;;;4.13;1.00;;;6.10;99.90;;;;;;6264199;22;20016;-58
2022/03/30 06:40:05;;;;;;;0.88;0.60;;;6.20;99.90;;;;;;6264304;22;20019;-59
2022/03/30 06:42:30;;;;;;;1.15;0.57;;;6.30;99.90;;;;;;6264118;22;20020;-57
2022/03/30 06:44:56;;;;;;;2.75;0.60;;;6.40;99.90;;;;;;6266367;22;20074;-59
2022/03/30 06:47:22;;;;;;;0.52;0.22;;;6.50;99.90;;;;;;6266153;22;20020;-59
2022/03/30 06:49:48;;;;;;;2.45;1.02;;;6.70;99.90;;;;;;6266875;22;20426;-58
2022/03/30 06:52:14;;;;;;;6.40;0.98;;;6.90;99.90;;;;;;6266670;22;20016;-59
2022/03/30 06:54:40;;;;;;;1.45;1.00;;;7.00;99.90;;;;;;6266262;22;20798;-57
2022/03/30 06:57:06;;;;;;;2.42;0.75;;;7.20;99.90;;;;;;6266282;22;20465;-59
2022/03/30 06:59:32;;;;;;;3.47;1.10;;;7.40;99.90;;;;;;6266698;22;20047;-64
2022/03/30 07:01:58;;;;;;;2.10;0.68;;;7.60;99.90;;;;;;6239242;22;20041;-65
2022/03/30 07:04:24;;;;;;;2.95;2.08;;;7.90;99.90;;;;;;6266417;22;20016;-65
2022/03/30 07:12:19;;;;;;;4.05;1.13;;;8.30;99.90;;;;;;6235554;22;20049;-64
2022/03/30 07:14:47;;;;;;;2.47;1.10;;;8.20;99.90;;;;;;6267722;22;20051;-66
2022/03/30 07:17:14;;;;;;;2.88;1.60;;;8.30;99.90;;;;;;6240119;22;20107;-65
2022/03/30 07:19:40;;;;;;;3.50;1.20;;;8.40;99.90;;;;;;6239878;22;20065;-65
2022/03/30 07:22:10;;;;;;;1.65;0.80;;;8.30;99.90;;;;;;6268217;22;20023;-65
2022/03/30 07:24:36;;;;;;;4.80;1.20;;;8.50;99.90;;;;;;6268228;22;20020;-66
2022/03/30 07:27:02;;;;;;;3.15;1.40;;;8.50;99.90;;;;;;6267537;22;20090;-59
2022/03/30 07:29:27;;;;;;;9.55;1.60;;;8.60;99.90;;;;;;6266511;22;20024;-57
2022/03/30 07:31:53;;;;;;;1.80;0.93;;;8.70;99.90;;;;;;6267013;22;20020;-57
2022/03/30 07:34:19;;;;;;;1.40;1.30;;;8.80;99.90;;;;;;6267769;22;20019;-57
2022/03/30 07:36:44;;;;;;;2.25;1.25;;;8.90;99.90;;;;;;6268693;22;20061;-56
2022/03/30 07:39:10;;;;;;;6.03;1.17;;;9.00;99.90;;;;;;6268119;22;20031;-57
2022/03/30 07:41:36;;;;;;;1.83;0.55;;;9.10;99.90;;;;;;6268092;22;20016;-56
2022/03/30 07:44:02;;;;;;;2.78;1.70;;;9.20;99.90;;;;;;6267350;22;20347;-56
2022/03/30 07:46:28;;;;;;;1.55;0.80;;;9.30;99.90;;;;;;6267436;22;20776;-57
2022/03/30 07:48:53;;;;;;;1.33;0.60;;;9.40;99.90;;;;;;6267779;22;20030;-57
2022/03/30 07:51:19;;;;;;;0.40;0.30;;;9.60;99.90;;;;;;6268325;22;20096;-56
2022/03/30 07:53:45;;;;;;;3.30;0.93;;;9.60;99.90;;;;;;6267832;22;20157;-56
2022/03/30 07:56:10;;;;;;;2.08;0.65;;;9.60;99.90;;;;;;6266614;22;20050;-57
2022/03/30 07:58:36;;;;;;;1.10;0.50;;;9.70;99.90;;;;;;6267244;22;20019;-56
2022/03/30 08:01:02;;;;;;;6.60;1.35;;;9.90;99.90;;;;;;6267264;22;20030;-56
2022/03/30 08:03:27;;;;;;;2.92;0.68;;;10.20;99.90;;;;;;6241260;22;20102;-56
2022/03/30 08:05:53;;;;;;;3.13;0.70;;;10.20;99.90;;;;;;6240882;22;20027;-56
2022/03/30 08:08:18;;;;;;;2.75;0.50;;;10.30;99.90;;;;;;6267276;22;20020;-56
2022/03/30 08:10:44;;;;;;;0.93;0.45;;;10.60;99.90;;;;;;6267926;22;20012;-56
2022/03/30 08:13:12;;;;;;;3.45;1.35;;;10.60;99.90;;;;;;6267798;22;20020;-56
2022/03/30 08:15:39;;;;;;;1.25;0.60;;;10.60;99.90;;;;;;6239837;22;20016;-58
2022/03/30 08:18:07;;;;;;;2.88;0.98;;;10.70;99.90;;;;;;6267423;22;20024;-59
2022/03/30 08:23:18;;;;;;;3.63;1.13;;;11.00;99.90;;;;;;6267574;22;20035;-57
2022/03/30 08:25:44;;;;;;;4.20;0.60;;;10.80;99.90;;;;;;6267688;22;20097;-57
2022/03/30 08:28:10;;;;;;;3.25;1.10;;;10.70;99.90;;;;;;6266530;22;20019;-57
2022/03/30 08:30:36;;;;;;;9.05;1.08;;;10.50;99.90;;;;;;6267462;22;20488;-59
2022/03/30 08:33:03;;;;;;;1.95;0.40;;;10.20;99.90;;;;;;6267555;22;20023;-56
2022/03/30 08:35:30;;;;;;;2.22;0.88;;;9.80;99.90;;;;;;6266849;22;20094;-60
2022/03/30 08:37:56;;;;;;;5.68;1.30;;;9.40;99.90;;;;;;6268014;22;20016;-58
2022/03/30 08:40:22;;;;;;;3.75;1.17;;;9.00;99.90;;;;;;6267509;22;20101;-57
2022/03/30 08:42:49;;;;;;;2.67;0.90;;;9.00;99.90;;;;;;6264731;22;20860;-58
2022/03/30 08:45:15;;;;;;;3.58;1.58;;;9.00;99.90;;;;;;6266883;22;20058;-57
2022/03/30 08:47:40;;;;;;;6.10;0.85;;;8.40;99.90;;;;;;6267498;22;20019;-57
2022/03/30 08:50:09;;;;;;;2.00;0.40;;;8.20;99.90;;;;;;6268529;22;20050;-56
2022/03/30 08:52:35;;;;;;;1.58;0.55;;;8.20;99.90;;;;;;6267735;22;20060;-57
2022/03/30 08:55:01;;;;;;;4.82;0.75;;;8.60;99.90;;;;;;6267612;22;20432;-58
2022/03/30 08:57:27;;;;;;;3.42;0.70;;;8.60;99.90;;;;;;6268010;22;20016;-59
2022/03/30 09:00:14;;;;;;;4.88;0.60;;;8.90;99.90;;;;;;6239631;22;20099;-57
2022/03/30 09:02:46;;;;;;;2.92;0.93;;;9.00;99.90;;;;;;6267274;22;20039;-56
2022/03/30 09:05:20;;;;;;;3.72;1.20;;;8.90;99.90;;;;;;6266583;22;20417;-56
2022/03/30 09:07:49;;;;;;;1.33;0.90;;;9.20;99.90;;;;;;6267792;22;20015;-56
2022/03/30 09:10:22;;;;;;;1.40;0.68;;;9.20;99.90;;;;;;6240387;22;20023;-61
2022/03/30 09:12:51;;;;;;;4.97;0.57;;;9.30;99.90;;;;;;6267722;22;20798;-59
2022/03/30 09:15:20;;;;;;;2.15;0.60;;;9.60;99.90;;;;;;6266341;22;20039;-56
2022/03/30 09:17:47;;;;;;;2.92;0.75;;;9.50;99.90;;;;;;6267017;22;20090;-59
2022/03/30 09:20:19;;;;;;;3.92;0.80;;;9.50;99.90;;;;;;6266484;22;20109;-56
2022/03/30 09:22:48;;;;;;;1.00;0.50;;;9.60;99.90;;;;;;6267348;22;20035;-58
2022/03/30 09:25:14;;;;;;;1.50;0.60;;;9.70;99.90;;;;;;6265922;22;20714;-62
2022/03/30 09:27:42;;;;;;;4.30;0.88;;;9.30;99.90;;;;;;6267193;22;20342;-58
2022/03/30 09:30:11;;;;;;;2.85;0.75;;;9.20;99.90;;;;;;6239335;22;20024;-57
2022/03/30 09:32:39;;;;;;;2.92;1.00;;;8.80;99.90;;;;;;6266300;22;20022;-56
2022/03/30 09:35:05;;;;;;;1.70;0.93;;;8.90;99.90;;;;;;6266498;22;20027;-56
2022/03/30 09:37:31;;;;;;;1.13;0.70;;;9.20;99.90;;;;;;6266760;22;20454;-56
2022/03/30 09:39:57;;;;;;;5.32;1.17;;;9.30;99.90;;;;;;6267732;22;20015;-55
2022/03/30 09:42:27;;;;;;;7.60;0.90;;;9.40;99.90;;;;;;6265997;22;20030;-55
2022/03/30 09:44:54;;;;;;;7.22;0.95;;;9.50;99.90;;;;;;6239246;22;20024;-56
2022/03/30 09:47:21;;;;;;;2.95;0.90;;;9.60;99.90;;;;;;6265382;22;20023;-56
2022/03/30 09:49:48;;;;;;;5.68;0.85;;;9.70;99.90;;;;;;6266483;22;20963;-55
2022/03/30 09:52:23;;;;;;;7.28;1.42;;;10.00;99.90;;;;;;6267197;22;20116;-56
2022/03/30 09:55:00;;;;;;;2.78;0.93;;;10.20;99.90;;;;;;6267705;22;20031;-56
2022/03/30 09:57:26;;;;;;;5.50;0.88;;;10.40;99.90;;;;;;6267336;22;20518;-56
2022/03/30 10:00:30;;;;;;;2.17;1.00;;;10.70;99.90;;;;;;6266128;22;20023;-56
2022/03/30 10:02:55;;;;;;;2.08;0.68;;;11.10;99.90;;;;;;6142370;23;20104;-55
2022/03/30 10:05:23;;;;;;;3.47;1.20;;;10.80;99.90;;;;;;6241749;22;20024;-56
2022/03/30 10:07:50;;;;;;;1.65;0.68;;;11.10;99.90;;;;;;6264425;22;20417;-56
2022/03/30 10:10:17;;;;;;;8.35;1.85;;;11.60;99.90;;;;;;6260341;22;20023;-56
2022/03/30 10:12:43;;;;;;;6.13;1.42;;;11.70;99.90;;;;;;6232559;22;20198;-57
2022/03/30 10:15:11;;;;;;;3.53;1.10;;;12.00;99.90;;;;;;6261488;22;20398;-56
2022/03/30 10:17:37;;;;;;;2.58;1.00;;;12.50;99.90;;;;;;6262439;22;20019;-60
2022/03/30 10:20:06;;;;;;;8.80;1.98;;;12.80;99.90;;;;;;6260967;22;20020;-57
2022/03/30 10:22:47;;;;;;;2.55;1.30;;;12.80;99.90;;;;;;6261124;22;20047;-57
2022/03/30 10:25:34;;;;;;;4.22;1.17;;;13.00;99.90;;;;;;6233807;22;20459;-59
2022/03/30 10:28:21;;;;;;;1.90;0.90;;;13.10;99.90;;;;;;6261323;22;20027;-59
2022/03/30 10:30:55;;;;;;;3.13;1.20;;;13.40;99.90;;;;;;6234401;22;20097;-58
2022/03/30 10:33:34;;;;;;;;;;;13.30;99.90;;;;;;6262463;22;20023;-57
2022/03/30 10:36:21;;;;;;;3.03;0.75;;;13.20;99.90;;;;;;6261752;22;19919;-61
2022/03/30 10:39:27;;;;;;;2.63;0.93;;;13.10;99.90;;;;;;6262082;22;20115;-57
2022/03/30 10:42:07;;;;;;;2.20;0.77;;;13.00;99.90;;;;;;6137285;23;20047;-63
2022/03/30 10:44:46;;;;;;;3.22;0.90;;;12.80;99.90;;;;;;6137593;23;20029;-60
2022/03/30 10:47:20;;;;;;;1.33;0.80;;;12.80;99.90;;;;;;6221929;22;20055;-60
2022/03/30 10:49:56;;;;;;;4.15;0.82;;;12.80;99.90;;;;;;6264388;22;20059;-65
2022/03/30 10:52:38;;;;;;;1.83;0.70;;;12.50;99.90;;;;;;6236694;22;20019;-63
2022/03/30 10:55:13;;;;;;;4.22;1.10;;;12.20;99.90;;;;;;6264610;22;20024;-63
2022/03/30 10:57:50;;;;;;;1.75;0.90;;;12.20;99.90;;;;;;6264145;22;20035;-67
2022/03/30 11:00:18;;;;;;;3.30;0.85;;;11.90;99.90;;;;;;6264377;22;20064;-62
2022/03/30 11:02:45;;;;;;;3.10;0.75;;;11.90;99.90;;;;;;6264121;22;20054;-64
2022/03/30 11:05:12;;;;;;;3.70;0.90;;;11.70;99.90;;;;;;6237043;22;20358;-67
2022/03/30 11:07:38;;;;;;;0.65;0.65;;;11.70;99.90;;;;;;6265543;22;20016;-63
2022/03/30 11:10:15;;;;;;;2.42;0.75;;;11.60;99.90;;;;;;6264268;22;20580;-63
2022/03/30 11:13:13;;;;;;;1.38;0.45;;;11.50;99.90;;;;;;6264264;22;20470;-65
2022/03/30 11:16:00;;;;;;;2.33;0.93;;;11.60;99.90;;;;;;6213508;22;20055;-66
2022/03/30 11:18:27;;;;;;;3.35;0.88;;;11.60;99.90;;;;;;6237186;22;20024;-65
2022/03/30 11:21:09;;;;;;;1.08;0.80;;;12.10;99.90;;;;;;6236535;22;20020;-63
2022/03/30 11:23:36;;;;;;;3.33;0.82;;;12.20;99.90;;;;;;6264363;22;20051;-65
2022/03/30 11:26:02;;;;;;;4.28;0.50;;;12.40;99.90;;;;;;6237477;22;20035;-66
2022/03/30 11:28:36;;;;;;;7.53;1.25;;;12.90;99.90;;;;;;6265444;22;20020;-64
2022/03/30 11:31:04;;;;;;;;;;;13.20;99.90;;;;;;6265200;22;20055;-68
2022/03/30 11:33:32;;;;;;;3.15;1.17;;;13.60;99.90;;;;;;6234618;22;19927;-63
2022/03/30 11:36:00;;;;;;;2.08;0.80;;;13.30;99.90;;;;;;6264355;22;20016;-65
2022/03/30 11:38:32;;;;;;;6.88;1.50;;;12.80;99.90;;;;;;6263254;22;20024;-67
2022/03/30 11:41:06;;;;;;;3.28;0.63;;;12.10;99.90;;;;;;6263877;22;20055;-65
2022/03/30 11:45:12;;;;;;;3.47;0.60;;;11.60;99.90;;;;;;6263508;22;20070;-69
2022/03/30 11:46:28;;;;;;;3.60;0.80;;;11.10;99.90;;;;;;6262133;22;20756;-66
2022/03/30 11:49:02;;;;;;;10.73;2.20;;;10.90;99.90;;;;;;6263643;22;20095;-64
2022/03/30 11:51:28;;;;;;;1.85;0.50;;;11.00;99.90;;;;;;6264092;22;20409;-62
2022/03/30 11:54:14;;;;;;;2.30;0.85;;;11.30;99.90;;;;;;6264344;22;20023;-67
2022/03/30 11:56:40;;;;;;;2.80;0.52;;;11.20;99.90;;;;;;6264307;22;20150;-57
2022/03/30 11:59:06;;;;;;;5.25;0.95;;;11.40;99.90;;;;;;6264687;22;20022;-56
2022/03/30 12:01:35;;;;;;;1.02;0.60;;;11.70;99.90;;;;;;6263599;22;20015;-56
2022/03/30 12:04:02;;;;;;;2.72;0.57;;;11.90;99.90;;;;;;6263905;22;20026;-57
2022/03/30 12:06:28;;;;;;;1.67;0.75;;;12.00;99.90;;;;;;6264590;22;20114;-56
2022/03/30 12:08:53;;;;;;;2.47;0.40;;;12.20;99.90;;;;;;6264164;22;20118;-55
2022/03/30 12:11:20;;;;;;;2.78;0.70;;;12.40;99.90;;;;;;6264882;22;20098;-57
2022/03/30 12:13:51;;;;;;;4.00;0.82;;;12.90;99.90;;;;;;6264129;22;20693;-56
2022/03/30 12:16:17;;;;;;;2.08;0.65;;;13.20;99.90;;;;;;6236995;22;20016;-67
2022/03/30 12:19:00;;;;;;;2.05;0.63;;;13.50;99.90;;;;;;6237320;22;20093;-56
2022/03/30 12:21:34;;;;;;;9.15;0.93;;;13.90;99.90;;;;;;6264804;22;20047;-56
2022/03/30 12:24:06;;;;;;;1.20;0.70;;;13.40;98.70;;;;;;6264303;22;20548;-55
2022/03/30 12:26:32;;;;;;;1.38;1.00;;;13.30;99.90;;;;;;6263776;22;20021;-56
2022/03/30 12:29:16;;;;;;;3.40;0.55;;;14.10;99.90;;;;;;6236478;22;20428;-56
2022/03/30 12:31:53;;;;;;;5.07;1.25;;;14.40;98.20;;;;;;6264455;22;20496;-56
2022/03/30 12:34:20;;;;;;;1.50;0.60;;;14.70;98.30;;;;;;6263825;22;20638;-57
2022/03/30 12:36:49;;;;;;;7.38;1.15;;;14.70;98.40;;;;;;6263768;22;20023;-56
2022/03/30 12:39:18;;;;;;;1.02;0.40;;;14.80;97.40;;;;;;6263029;22;20032;-56
2022/03/30 12:41:54;;;;;;;3.90;1.20;;;15.40;96.50;;;;;;6263881;22;20015;-56
2022/03/30 12:44:20;;;;;;;5.13;0.80;;;16.00;97.70;;;;;;6263623;22;20749;-56
2022/03/30 12:46:46;;;;;;;3.50;1.67;;;16.40;96.00;;;;;;6263907;22;20024;-55
2022/03/30 12:49:12;;;;;;;11.07;0.88;;;16.50;97.00;;;;;;6263953;22;20019;-56
2022/03/30 12:51:39;;;;;;;8.45;1.20;;;17.00;95.50;;;;;;6263975;22;20331;-56
2022/03/30 12:54:20;;;;;;;15.65;1.80;;;17.50;94.50;;;;;;6263324;22;20023;-56
2022/03/30 12:56:46;;;;;;;6.55;1.95;;;17.50;93.00;;;;;;6263256;22;20019;-57
2022/03/30 12:59:18;;;;;;;2.42;0.60;;;17.50;94.80;;;;;;6210372;22;20020;-56
2022/03/30 13:01:46;;;;;;;1.05;0.40;;;16.50;93.00;;;;;;6263316;22;20098;-56
2022/03/30 13:04:28;;;;;;;5.57;0.50;;;16.50;95.10;;;;;;6262268;22;20026;-56
2022/03/30 13:07:14;;;;;;;3.28;0.93;;;15.70;92.20;;;;;;6262231;22;20529;-56